Date,TemperatureHighF,TemperatureAvgF,TemperatureLowF,DewpointHighF,DewpointAvgF,DewpointLowF,HumidityHigh,HumidityAvg,HumidityLow,PressureMaxIn,PressureMinIn,WindSpeedMaxMPH,WindSpeedAvgMPH,GustSpeedMaxMPH,PrecipitationSumIn
2013-2-2,57,45,37,47,41,36,98,90,70,30.21,30.17,0,0,0,0.00
2013-2-3,46,38,33,43,37,32,99,97,87,30.26,30.14,1,0,4,0.00
2013-2-4,55,45,40,47,43,39,98,93,73,30.14,29.86,2,0,8,0.00
2013-2-5,47,42,38,46,41,37,99,98,97,29.92,29.81,2,0,7,0.00
2013-2-6,45,42,41,44,41,41,99,98,96,30.03,29.84,1,0,9,0.00
2013-2-7,48,40,35,42,39,34,99,95,72,30.06,29.83,2,0,10,0.00
2013-2-8,44,36,31,37,34,31,99,92,73,30.19,30.09,2,0,10,0.00
2013-2-9,44,38,33,40,36,32,98,95,84,30.22,30.15,3,0,9,0.00
2013-2-10,50,42,36,41,38,35,99,88,68,30.25,30.18,2,0,7,0.00
2013-2-11,43,41,39,43,38,37,99,92,80,30.27,30.21,3,0,10,0.00
2013-2-12,49,45,43,47,44,42,98,96,88,30.33,30.26,6,2,16,0.00
2013-2-15,63,52,37,51,47,37,99,83,62,30.39,30.18,2,0,4,0.00
2013-2-16,47,41,37,45,40,37,99,97,91,30.19,30.12,6,2,20,0.00
2013-2-17,44,39,34,38,37,33,97,93,77,30.22,30.09,3,0,8,0.00
2013-2-18,45,37,33,38,35,32,98,92,75,30.09,29.72,2,0,10,0.00
2013-2-19,50,39,33,38,36,32,97,89,61,29.95,29.67,3,0,9,0.00
2013-2-20,45,38,33,38,36,32,98,92,75,30.03,29.95,3,0,10,0.00
2013-2-21,40,39,37,40,38,36,99,97,93,30.08,29.99,4,1,14,0.00
2013-2-22,41,39,36,40,38,35,99,98,97,30.02,29.71,4,0,20,0.00
2013-2-23,40,37,35,39,37,35,99,97,94,30.31,29.88,7,2,17,0.00
2013-2-24,46,41,37,42,38,36,98,92,80,30.32,29.99,2,0,6,0.00
2013-2-25,41,38,36,40,37,35,99,98,96,30.23,29.91,6,1,22,0.00
2013-2-26,47,40,35,41,38,34,98,94,73,30.29,30.19,2,0,10,0.00
2013-2-27,54,43,37,44,40,36,99,92,62,30.27,30.22,1,0,5,0.00
2013-2-28,46,43,41,46,43,40,99,99,98,30.35,30.21,0,0,0,0.00